sensor_id;sensor_type;location;lat;lon;timestamp;pressure;altitude;pressure_sealevel;temperature;humidity
48606;BME280;8482;54.396;18.590;2023-02-28T00:01:13;103096.72;;;-1.10;70.60
48606;BME280;8482;54.396;18.590;2023-02-28T00:03:40;103094.13;;;-1.13;70.50
48606;BME280;8482;54.396;18.590;2023-02-28T00:06:07;103095.84;;;-1.15;70.25
48606;BME280;8482;54.396;18.590;2023-02-28T00:08:34;103098.41;;;-1.18;71.09
48606;BME280;8482;54.396;18.590;2023-02-28T00:11:06;103105.38;;;-1.17;70.93
48606;BME280;8482;54.396;18.590;2023-02-28T00:13:36;103101.88;;;-1.19;70.75
48606;BME280;8482;54.396;18.590;2023-02-28T00:16:09;103093.16;;;-1.23;70.43
48606;BME280;8482;54.396;18.590;2023-02-28T00:18:36;103102.72;;;-1.20;70.69
48606;BME280;8482;54.396;18.590;2023-02-28T00:21:02;103098.38;;;-1.21;71.13
48606;BME280;8482;54.396;18.590;2023-02-28T00:23:29;103102.72;;;-1.20;70.57
48606;BME280;8482;54.396;18.590;2023-02-28T00:25:55;103103.53;;;-1.25;71.37
48606;BME280;8482;54.396;18.590;2023-02-28T00:28:22;103108.78;;;-1.23;70.99
48606;BME280;8482;54.396;18.590;2023-02-28T00:30:48;103104.41;;;-1.26;70.89
48606;BME280;8482;54.396;18.590;2023-02-28T00:33:14;103107.91;;;-1.27;71.25
48606;BME280;8482;54.396;18.590;2023-02-28T00:35:39;103111.31;;;-1.29;70.70
48606;BME280;8482;54.396;18.590;2023-02-28T00:38:05;103120.88;;;-1.30;70.95
48606;BME280;8482;54.396;18.590;2023-02-28T00:40:31;103108.72;;;-1.29;71.21
48606;BME280;8482;54.396;18.590;2023-02-28T00:42:57;103107.88;;;-1.30;71.21
48606;BME280;8482;54.396;18.590;2023-02-28T00:45:23;103110.47;;;-1.30;71.16
48606;BME280;8482;54.396;18.590;2023-02-28T00:47:49;103113.94;;;-1.29;71.09
48606;BME280;8482;54.396;18.590;2023-02-28T00:50:24;103112.19;;;-1.30;71.41
48606;BME280;8482;54.396;18.590;2023-02-28T00:52:50;103111.31;;;-1.31;70.77
48606;BME280;8482;54.396;18.590;2023-02-28T00:55:16;103110.44;;;-1.31;70.51
48606;BME280;8482;54.396;18.590;2023-02-28T00:57:42;103110.47;;;-1.30;71.10
48606;BME280;8482;54.396;18.590;2023-02-28T01:00:09;103118.28;;;-1.30;70.86
48606;BME280;8482;54.396;18.590;2023-02-28T01:02:35;103113.94;;;-1.29;70.86
48606;BME280;8482;54.396;18.590;2023-02-28T01:05:01;103108.72;;;-1.32;70.37
48606;BME280;8482;54.396;18.590;2023-02-28T01:07:27;103113.03;;;-1.33;70.73
48606;BME280;8482;54.396;18.590;2023-02-28T01:09:52;103117.38;;;-1.32;70.97
48606;BME280;8482;54.396;18.590;2023-02-28T01:12:18;103113.94;;;-1.31;70.70
48606;BME280;8482;54.396;18.590;2023-02-28T01:14:44;103102.63;;;-1.33;70.52
48606;BME280;8482;54.396;18.590;2023-02-28T01:17:10;103116.53;;;-1.31;70.84
48606;BME280;8482;54.396;18.590;2023-02-28T01:19:36;103113.03;;;-1.33;70.14
48606;BME280;8482;54.396;18.590;2023-02-28T01:22:04;103114.75;;;-1.35;70.36
48606;BME280;8482;54.396;18.590;2023-02-28T01:24:32;103110.41;;;-1.36;70.42
48606;BME280;8482;54.396;18.590;2023-02-28T01:26:58;103113.00;;;-1.36;70.19
48606;BME280;8482;54.396;18.590;2023-02-28T01:29:24;103106.03;;;-1.39;70.41
48606;BME280;8482;54.396;18.590;2023-02-28T01:31:50;103104.28;;;-1.41;69.77
48606;BME280;8482;54.396;18.590;2023-02-28T01:34:16;103106.00;;;-1.42;70.27
48606;BME280;8482;54.396;18.590;2023-02-28T01:36:45;103106.88;;;-1.43;70.09
48606;BME280;8482;54.396;18.590;2023-02-28T01:39:11;103099.91;;;-1.47;70.42
48606;BME280;8482;54.396;18.590;2023-02-28T01:41:38;103104.22;;;-1.47;70.70
48606;BME280;8482;54.396;18.590;2023-02-28T01:45:01;103098.13;;;-1.49;69.98
48606;BME280;8482;54.396;18.590;2023-02-28T01:47:35;103097.22;;;-1.53;70.12
48606;BME280;8482;54.396;18.590;2023-02-28T01:50:08;103102.44;;;-1.55;70.01
48606;BME280;8482;54.396;18.590;2023-02-28T01:52:35;103087.63;;;-1.59;69.94
48606;BME280;8482;54.396;18.590;2023-02-28T01:55:04;103090.22;;;-1.59;70.61
48606;BME280;8482;54.396;18.590;2023-02-28T01:57:41;103096.31;;;-1.58;70.30
48606;BME280;8482;54.396;18.590;2023-02-28T02:00:13;103098.03;;;-1.60;70.72
48606;BME280;8482;54.396;18.590;2023-02-28T02:02:44;103098.91;;;-1.60;70.77
48606;BME280;8482;54.396;18.590;2023-02-28T02:05:24;103086.75;;;-1.61;70.44
48606;BME280;8482;54.396;18.590;2023-02-28T02:07:55;103104.09;;;-1.60;70.80
48606;BME280;8482;54.396;18.590;2023-02-28T02:10:47;103097.16;;;-1.61;70.92
48606;BME280;8482;54.396;18.590;2023-02-28T02:25:32;103115.25;;;-1.75;70.63
48606;BME280;8482;54.396;18.590;2023-02-28T02:40:03;103111.53;;;-1.97;70.67
48606;BME280;8482;54.396;18.590;2023-02-28T02:42:59;103116.69;;;-2.02;70.36
48606;BME280;8482;54.396;18.590;2023-02-28T02:45:56;103106.19;;;-2.08;70.46
48606;BME280;8482;54.396;18.590;2023-02-28T02:48:30;103105.31;;;-2.08;71.28
48606;BME280;8482;54.396;18.590;2023-02-28T02:51:01;103098.34;;;-2.11;70.90
48606;BME280;8482;54.396;18.590;2023-02-28T02:53:42;103106.97;;;-2.15;71.06
48606;BME280;8482;54.396;18.590;2023-02-28T02:56:12;103116.53;;;-2.14;71.54
48606;BME280;8482;54.396;18.590;2023-02-28T02:58:42;103118.25;;;-2.14;71.75
48606;BME280;8482;54.396;18.590;2023-02-28T03:01:15;103119.13;;;-2.14;72.21
48606;BME280;8482;54.396;18.590;2023-02-28T03:03:44;103122.59;;;-2.13;72.19
48606;BME280;8482;54.396;18.590;2023-02-28T03:06:10;103124.34;;;-2.11;72.18
48606;BME280;8482;54.396;18.590;2023-02-28T03:08:38;103117.44;;;-2.12;72.57
48606;BME280;8482;54.396;18.590;2023-02-28T03:11:12;103120.94;;;-2.07;72.43
48606;BME280;8482;54.396;18.590;2023-02-28T03:16:33;103130.53;;;-2.01;72.43
48606;BME280;8482;54.396;18.590;2023-02-28T03:25:06;103126.31;;;-1.93;72.33
48606;BME280;8482;54.396;18.590;2023-02-28T03:28:00;103115.03;;;-1.92;72.60
48606;BME280;8482;54.396;18.590;2023-02-28T03:30:52;103122.84;;;-1.92;71.92
48606;BME280;8482;54.396;18.590;2023-02-28T03:33:34;103122.88;;;-1.89;72.29
48606;BME280;8482;54.396;18.590;2023-02-28T03:36:16;103125.53;;;-1.86;72.31
48606;BME280;8482;54.396;18.590;2023-02-28T03:39:05;103126.38;;;-1.85;72.08
48606;BME280;8482;54.396;18.590;2023-02-28T03:41:46;103128.16;;;-1.81;72.01
48606;BME280;8482;54.396;18.590;2023-02-28T03:44:41;103125.59;;;-1.79;72.21
48606;BME280;8482;54.396;18.590;2023-02-28T03:47:22;103130.84;;;-1.75;72.14
48606;BME280;8482;54.396;18.590;2023-02-28T03:50:19;103124.78;;;-1.74;71.78
48606;BME280;8482;54.396;18.590;2023-02-28T03:52:50;103123.09;;;-1.70;71.50
48606;BME280;8482;54.396;18.590;2023-02-28T03:55:18;103113.53;;;-1.70;72.00
48606;BME280;8482;54.396;18.590;2023-02-28T03:58:11;103116.19;;;-1.68;71.73
48606;BME280;8482;54.396;18.590;2023-02-28T04:00:49;103124.88;;;-1.64;71.48
48606;BME280;8482;54.396;18.590;2023-02-28T04:03:19;103120.53;;;-1.64;71.09
48606;BME280;8482;54.396;18.590;2023-02-28T04:05:54;103119.69;;;-1.63;71.57
48606;BME280;8482;54.396;18.590;2023-02-28T04:08:22;103117.97;;;-1.62;71.35
48606;BME280;8482;54.396;18.590;2023-02-28T04:13:40;103123.19;;;-1.61;70.95
48606;BME280;8482;54.396;18.590;2023-02-28T04:16:09;103116.22;;;-1.62;71.62
48606;BME280;8482;54.396;18.590;2023-02-28T04:18:41;103111.91;;;-1.61;70.89
48606;BME280;8482;54.396;18.590;2023-02-28T04:21:11;103117.13;;;-1.60;71.33
48606;BME280;8482;54.396;18.590;2023-02-28T04:23:37;103122.31;;;-1.60;71.38
48606;BME280;8482;54.396;18.590;2023-02-28T04:26:04;103122.38;;;-1.57;71.65
48606;BME280;8482;54.396;18.590;2023-02-28T04:28:31;103118.00;;;-1.58;71.24
48606;BME280;8482;54.396;18.590;2023-02-28T04:31:03;103116.25;;;-1.60;71.12
48606;BME280;8482;54.396;18.590;2023-02-28T04:33:32;103117.13;;;-1.60;71.41
48606;BME280;8482;54.396;18.590;2023-02-28T04:36:04;103112.78;;;-1.61;71.10
48606;BME280;8482;54.396;18.590;2023-02-28T04:38:36;103115.38;;;-1.61;71.31
48606;BME280;8482;54.396;18.590;2023-02-28T04:41:04;103111.91;;;-1.60;70.70
48606;BME280;8482;54.396;18.590;2023-02-28T04:43:30;103119.72;;;-1.58;70.78
48606;BME280;8482;54.396;18.590;2023-02-28T04:46:01;103111.91;;;-1.58;71.07
48606;BME280;8482;54.396;18.590;2023-02-28T04:48:34;103116.25;;;-1.59;70.71
48606;BME280;8482;54.396;18.590;2023-02-28T04:51:08;103112.81;;;-1.58;70.84
48606;BME280;8482;54.396;18.590;2023-02-28T04:53:36;103117.16;;;-1.57;71.21
48606;BME280;8482;54.396;18.590;2023-02-28T04:56:03;103112.81;;;-1.58;70.35
48606;BME280;8482;54.396;18.590;2023-02-28T04:58:29;103108.47;;;-1.57;70.78
48606;BME280;8482;54.396;18.590;2023-02-28T05:01:23;103111.94;;;-1.57;71.11
48606;BME280;8482;54.396;18.590;2023-02-28T05:03:51;103120.63;;;-1.58;70.66
48606;BME280;8482;54.396;18.590;2023-02-28T05:06:18;103118.88;;;-1.60;71.12
48606;BME280;8482;54.396;18.590;2023-02-28T05:08:44;103119.72;;;-1.60;71.01
48606;BME280;8482;54.396;18.590;2023-02-28T05:11:24;103120.63;;;-1.59;71.19
48606;BME280;8482;54.396;18.590;2023-02-28T05:13:51;103121.47;;;-1.57;70.72
48606;BME280;8482;54.396;18.590;2023-02-28T05:16:18;103113.66;;;-1.57;70.43
48606;BME280;8482;54.396;18.590;2023-02-28T05:18:44;103115.41;;;-1.56;69.84
48606;BME280;8482;54.396;18.590;2023-02-28T05:21:31;103115.44;;;-1.55;69.82
48606;BME280;8482;54.396;18.590;2023-02-28T05:24:04;103107.63;;;-1.55;70.19
48606;BME280;8482;54.396;18.590;2023-02-28T05:26:33;103108.53;;;-1.52;70.07
48606;BME280;8482;54.396;18.590;2023-02-28T05:28:59;103106.78;;;-1.50;70.15
48606;BME280;8482;54.396;18.590;2023-02-28T05:31:25;103100.72;;;-1.51;69.70
48606;BME280;8482;54.396;18.590;2023-02-28T05:33:51;103105.06;;;-1.50;69.74
48606;BME280;8482;54.396;18.590;2023-02-28T05:36:18;103094.66;;;-1.48;69.35
48606;BME280;8482;54.396;18.590;2023-02-28T05:38:47;103095.56;;;-1.48;69.31
48606;BME280;8482;54.396;18.590;2023-02-28T05:41:14;103092.06;;;-1.48;69.87
48606;BME280;8482;54.396;18.590;2023-02-28T05:43:40;103097.31;;;-1.45;69.47
48606;BME280;8482;54.396;18.590;2023-02-28T05:46:09;103093.84;;;-1.44;69.39
48606;BME280;8482;54.396;18.590;2023-02-28T05:48:38;103093.88;;;-1.41;69.39
48606;BME280;8482;54.396;18.590;2023-02-28T05:51:06;103094.75;;;-1.41;69.17
48606;BME280;8482;54.396;18.590;2023-02-28T05:53:33;103090.38;;;-1.43;69.20
48606;BME280;8482;54.396;18.590;2023-02-28T05:55:59;103099.94;;;-1.41;69.09
48606;BME280;8482;54.396;18.590;2023-02-28T05:58:26;103092.13;;;-1.41;69.55
48606;BME280;8482;54.396;18.590;2023-02-28T06:00:57;103092.16;;;-1.39;68.86
48606;BME280;8482;54.396;18.590;2023-02-28T06:03:23;103093.03;;;-1.39;69.43
48606;BME280;8482;54.396;18.590;2023-02-28T06:05:49;103099.97;;;-1.37;68.58
48606;BME280;8482;54.396;18.590;2023-02-28T06:08:16;103093.06;;;-1.34;69.33
48606;BME280;8482;54.396;18.590;2023-02-28T06:10:42;103099.16;;;-1.32;69.00
48606;BME280;8482;54.396;18.590;2023-02-28T06:13:08;103104.41;;;-1.26;68.77
48606;BME280;8482;54.396;18.590;2023-02-28T06:15:34;103113.13;;;-1.20;68.87
48606;BME280;8482;54.396;18.590;2023-02-28T06:18:03;103106.22;;;-1.17;68.49
48606;BME280;8482;54.396;18.590;2023-02-28T06:20:30;103110.59;;;-1.13;68.38
48606;BME280;8482;54.396;18.590;2023-02-28T06:22:57;103110.63;;;-1.08;68.62
48606;BME280;8482;54.396;18.590;2023-02-28T06:25:27;103104.59;;;-1.04;68.16
48606;BME280;8482;54.396;18.590;2023-02-28T06:27:54;103097.69;;;-1.02;68.12
48606;BME280;8482;54.396;18.590;2023-02-28T06:30:21;103103.78;;;-0.98;68.08
48606;BME280;8482;54.396;18.590;2023-02-28T06:32:51;103096.84;;;-0.95;67.95
48606;BME280;8482;54.396;18.590;2023-02-28T06:35:17;103099.44;;;-0.95;68.10
48606;BME280;8482;54.396;18.590;2023-02-28T06:37:43;103106.47;;;-0.87;67.84
48606;BME280;8482;54.396;18.590;2023-02-28T06:40:10;103105.63;;;-0.82;67.86
48606;BME280;8482;54.396;18.590;2023-02-28T06:42:36;103108.25;;;-0.77;67.51
48606;BME280;8482;54.396;18.590;2023-02-28T06:45:03;103107.44;;;-0.71;68.08
48606;BME280;8482;54.396;18.590;2023-02-28T06:47:36;103110.94;;;-0.65;67.69
48606;BME280;8482;54.396;18.590;2023-02-28T06:50:03;103097.94;;;-0.60;67.51
48606;BME280;8482;54.396;18.590;2023-02-28T06:52:30;103102.31;;;-0.53;67.86
48606;BME280;8482;54.396;18.590;2023-02-28T06:54:56;103108.44;;;-0.46;67.33
48606;BME280;8482;54.396;18.590;2023-02-28T06:57:30;103097.16;;;-0.42;67.33
48606;BME280;8482;54.396;18.590;2023-02-28T07:00:02;103100.66;;;-0.35;67.18
48606;BME280;8482;54.396;18.590;2023-02-28T07:02:28;103094.63;;;-0.31;67.25
48606;BME280;8482;54.396;18.590;2023-02-28T07:04:54;103104.19;;;-0.27;66.97
48606;BME280;8482;54.396;18.590;2023-02-28T07:07:20;103104.22;;;-0.21;67.13
48606;BME280;8482;54.396;18.590;2023-02-28T07:09:46;103107.72;;;-0.16;67.40
48606;BME280;8482;54.396;18.590;2023-02-28T07:12:12;103091.25;;;-0.07;67.65
48606;BME280;8482;54.396;18.590;2023-02-28T07:14:38;103097.34;;;0.00;67.36
48606;BME280;8482;54.396;18.590;2023-02-28T07:17:07;103089.53;;;0.06;67.42
48606;BME280;8482;54.396;18.590;2023-02-28T07:19:33;103094.78;;;0.12;67.13
48606;BME280;8482;54.396;18.590;2023-02-28T07:21:59;103089.53;;;0.15;67.01
48606;BME280;8482;54.396;18.590;2023-02-28T07:24:25;103099.13;;;0.21;66.55
48606;BME280;8482;54.396;18.590;2023-02-28T07:26:53;103092.16;;;0.23;66.88
48606;BME280;8482;54.396;18.590;2023-02-28T07:29:19;103099.16;;;0.27;66.44
48606;BME280;8482;54.396;18.590;2023-02-28T07:31:45;103089.59;;;0.33;66.65
48606;BME280;8482;54.396;18.590;2023-02-28T07:34:13;103089.56;;;0.36;66.38
48606;BME280;8482;54.396;18.590;2023-02-28T07:36:39;103093.94;;;0.40;66.38
48606;BME280;8482;54.396;18.590;2023-02-28T07:39:05;103088.72;;;0.44;66.65
48606;BME280;8482;54.396;18.590;2023-02-28T07:41:31;103087.88;;;0.49;66.47
48606;BME280;8482;54.396;18.590;2023-02-28T07:43:59;103089.63;;;0.54;66.43
48606;BME280;8482;54.396;18.590;2023-02-28T07:46:26;103094.81;;;0.60;66.98
48606;BME280;8482;54.396;18.590;2023-02-28T07:48:51;103082.66;;;0.59;66.33
48606;BME280;8482;54.396;18.590;2023-02-28T07:51:19;103097.44;;;0.68;66.43
48606;BME280;8482;54.396;18.590;2023-02-28T07:53:45;103103.53;;;0.75;66.03
48606;BME280;8482;54.396;18.590;2023-02-28T07:56:10;103097.44;;;0.81;66.13
48606;BME280;8482;54.396;18.590;2023-02-28T07:58:36;103093.13;;;0.84;66.14
48606;BME280;8482;54.396;18.590;2023-02-28T08:01:10;103093.09;;;0.90;65.76
48606;BME280;8482;54.396;18.590;2023-02-28T08:03:38;103095.72;;;0.97;65.81
48606;BME280;8482;54.396;18.590;2023-02-28T08:06:07;103093.97;;;1.05;66.10
48606;BME280;8482;54.396;18.590;2023-02-28T08:08:33;103105.25;;;1.13;66.08
48606;BME280;8482;54.396;18.590;2023-02-28T08:11:02;103096.56;;;1.17;65.43
48606;BME280;8482;54.396;18.590;2023-02-28T08:13:30;103093.06;;;1.23;65.06
48606;BME280;8482;54.396;18.590;2023-02-28T08:15:56;103092.16;;;1.29;64.80
48606;BME280;8482;54.396;18.590;2023-02-28T08:18:23;103094.78;;;1.35;64.94
48606;BME280;8482;54.396;18.590;2023-02-28T08:20:49;103090.41;;;1.42;64.89
48606;BME280;8482;54.396;18.590;2023-02-28T08:23:15;103089.50;;;1.46;64.53
48606;BME280;8482;54.396;18.590;2023-02-28T08:25:41;103086.03;;;1.51;64.16
48606;BME280;8482;54.396;18.590;2023-02-28T08:28:07;103091.22;;;1.59;63.96
48606;BME280;8482;54.396;18.590;2023-02-28T08:30:33;103089.44;;;1.66;63.08
48606;BME280;8482;54.396;18.590;2023-02-28T08:32:58;103081.59;;;1.69;63.56
48606;BME280;8482;54.396;18.590;2023-02-28T08:35:24;103073.69;;;1.77;63.23
48606;BME280;8482;54.396;18.590;2023-02-28T08:37:50;103072.81;;;1.84;63.56
48606;BME280;8482;54.396;18.590;2023-02-28T08:40:17;103074.53;;;1.90;62.92
48606;BME280;8482;54.396;18.590;2023-02-28T08:42:46;103066.63;;;1.99;62.76
48606;BME280;8482;54.396;18.590;2023-02-28T08:45:14;103068.31;;;2.06;63.05
48606;BME280;8482;54.396;18.590;2023-02-28T08:47:40;103078.75;;;2.12;62.62
48606;BME280;8482;54.396;18.590;2023-02-28T08:50:07;103081.38;;;2.16;61.53
48606;BME280;8482;54.396;18.590;2023-02-28T08:52:34;103081.34;;;2.20;61.63
48606;BME280;8482;54.396;18.590;2023-02-28T08:54:59;103060.38;;;2.23;61.28
48606;BME280;8482;54.396;18.590;2023-02-28T08:57:25;103076.91;;;2.28;61.00
48606;BME280;8482;54.396;18.590;2023-02-28T08:59:54;103083.00;;;2.30;61.17
48606;BME280;8482;54.396;18.590;2023-02-28T09:02:19;103090.84;;;2.35;60.53
48606;BME280;8482;54.396;18.590;2023-02-28T09:04:45;103087.31;;;2.41;60.90
48606;BME280;8482;54.396;18.590;2023-02-28T09:07:12;103087.25;;;2.45;61.26
48606;BME280;8482;54.396;18.590;2023-02-28T09:09:38;103094.25;;;2.51;61.39
48606;BME280;8482;54.396;18.590;2023-02-28T09:12:22;103093.28;;;2.60;60.81
48606;BME280;8482;54.396;18.590;2023-02-28T09:14:48;103093.25;;;2.65;60.54
48606;BME280;8482;54.396;18.590;2023-02-28T09:17:14;103091.44;;;2.71;60.80
48606;BME280;8482;54.396;18.590;2023-02-28T09:19:40;103089.66;;;2.76;60.80
48606;BME280;8482;54.396;18.590;2023-02-28T09:22:06;103095.69;;;2.86;60.20
48606;BME280;8482;54.396;18.590;2023-02-28T09:24:32;103079.09;;;2.87;59.98
48606;BME280;8482;54.396;18.590;2023-02-28T09:26:58;103083.38;;;2.96;60.38
48606;BME280;8482;54.396;18.590;2023-02-28T09:29:24;103094.69;;;3.03;60.47
48606;BME280;8482;54.396;18.590;2023-02-28T09:31:50;103087.63;;;3.08;60.05
48606;BME280;8482;54.396;18.590;2023-02-28T09:34:16;103093.69;;;3.16;59.15
48606;BME280;8482;54.396;18.590;2023-02-28T09:36:43;103093.63;;;3.21;58.93
48606;BME280;8482;54.396;18.590;2023-02-28T09:39:09;103090.94;;;3.29;59.00
48606;BME280;8482;54.396;18.590;2023-02-28T09:41:43;103096.09;;;3.35;58.69
48606;BME280;8482;54.396;18.590;2023-02-28T09:44:33;103095.13;;;3.44;58.94
48606;BME280;8482;54.396;18.590;2023-02-28T09:47:44;103101.16;;;3.53;58.88
48606;BME280;8482;54.396;18.590;2023-02-28T09:50:31;103088.81;;;3.60;58.73
48606;BME280;8482;54.396;18.590;2023-02-28T09:53:06;103078.25;;;3.65;58.42
48606;BME280;8482;54.396;18.590;2023-02-28T09:55:47;103074.69;;;3.71;58.48
48606;BME280;8482;54.396;18.590;2023-02-28T09:58:45;103083.28;;;3.83;58.71
48606;BME280;8482;54.396;18.590;2023-02-28T10:01:34;103080.50;;;3.94;58.37
48606;BME280;8482;54.396;18.590;2023-02-28T10:10:51;103070.56;;;4.17;56.84
48606;BME280;8482;54.396;18.590;2023-02-28T10:13:35;103064.41;;;4.19;56.84
48606;BME280;8482;54.396;18.590;2023-02-28T10:16:14;103075.63;;;4.29;56.86
48606;BME280;8482;54.396;18.590;2023-02-28T10:18:51;103063.25;;;4.37;56.48
48606;BME280;8482;54.396;18.590;2023-02-28T10:21:36;103055.19;;;4.48;56.43
48606;BME280;8482;54.396;18.590;2023-02-28T10:27:15;103055.88;;;4.61;55.03
48606;BME280;8482;54.396;18.590;2023-02-28T10:29:49;103054.03;;;4.66;54.69
48606;BME280;8482;54.396;18.590;2023-02-28T10:32:35;103058.28;;;4.73;54.67
48606;BME280;8482;54.396;18.590;2023-02-28T10:37:45;103065.16;;;4.82;53.96
48606;BME280;8482;54.396;18.590;2023-02-28T10:42:55;103067.63;;;4.90;54.53
48606;BME280;8482;54.396;18.590;2023-02-28T10:45:22;103064.06;;;4.96;54.41
48606;BME280;8482;54.396;18.590;2023-02-28T10:47:58;103071.78;;;5.05;54.54
48606;BME280;8482;54.396;18.590;2023-02-28T10:59:01;103056.53;;;5.22;52.92
48606;BME280;8482;54.396;18.590;2023-02-28T11:01:41;103060.69;;;5.34;52.15
48606;BME280;8482;54.396;18.590;2023-02-28T11:06:43;103041.06;;;5.51;51.95
48606;BME280;8482;54.396;18.590;2023-02-28T11:09:30;103041.69;;;5.62;51.68
48606;BME280;8482;54.396;18.590;2023-02-28T11:12:00;103033.69;;;5.68;50.88
48606;BME280;8482;54.396;18.590;2023-02-28T11:14:33;103034.38;;;5.77;50.26
48606;BME280;8482;54.396;18.590;2023-02-28T11:17:29;103040.25;;;5.88;49.85
48606;BME280;8482;54.396;18.590;2023-02-28T11:20:10;103037.41;;;5.97;50.30
48606;BME280;8482;54.396;18.590;2023-02-28T11:22:46;103031.16;;;6.05;50.29
48606;BME280;8482;54.396;18.590;2023-02-28T11:25:32;103027.38;;;6.15;50.35
48606;BME280;8482;54.396;18.590;2023-02-28T11:28:01;103024.63;;;6.20;49.49
48606;BME280;8482;54.396;18.590;2023-02-28T11:30:39;103014.06;;;6.21;49.50
48606;BME280;8482;54.396;18.590;2023-02-28T11:33:49;103012.97;;;6.30;49.98
48606;BME280;8482;54.396;18.590;2023-02-28T11:36:27;103013.66;;;6.37;49.47
48606;BME280;8482;54.396;18.590;2023-02-28T11:39:08;103016.16;;;6.43;49.49
48606;BME280;8482;54.396;18.590;2023-02-28T11:45:02;102996.44;;;6.58;48.27
48606;BME280;8482;54.396;18.590;2023-02-28T11:47:50;103004.09;;;6.69;48.25
48606;BME280;8482;54.396;18.590;2023-02-28T11:56:37;102983.44;;;6.85;46.86
48606;BME280;8482;54.396;18.590;2023-02-28T12:03:15;102978.34;;;7.10;46.24
48606;BME280;8482;54.396;18.590;2023-02-28T12:06:02;102976.19;;;7.23;46.24
48606;BME280;8482;54.396;18.590;2023-02-28T12:08:51;102969.94;;;7.27;45.58
48606;BME280;8482;54.396;18.590;2023-02-28T12:11:51;102971.28;;;7.41;45.61
48606;BME280;8482;54.396;18.590;2023-02-28T12:26:34;102963.63;;;7.90;44.32
48606;BME280;8482;54.396;18.590;2023-02-28T12:29:32;102962.34;;;8.02;43.69
48606;BME280;8482;54.396;18.590;2023-02-28T12:32:42;102968.31;;;8.08;43.59
48606;BME280;8482;54.396;18.590;2023-02-28T12:40:25;102952.31;;;8.40;43.11
48606;BME280;8482;54.396;18.590;2023-02-28T12:43:04;102949.53;;;8.43;43.11
48606;BME280;8482;54.396;18.590;2023-02-28T12:45:45;102948.34;;;8.53;42.66
48606;BME280;8482;54.396;18.590;2023-02-28T12:51:12;102948.56;;;8.72;42.24
48606;BME280;8482;54.396;18.590;2023-02-28T12:54:04;102948.97;;;8.85;42.00
48606;BME280;8482;54.396;18.590;2023-02-28T12:59:51;102956.16;;;9.05;41.64
48606;BME280;8482;54.396;18.590;2023-02-28T13:05:32;102942.72;;;9.34;41.33
48606;BME280;8482;54.396;18.590;2023-02-28T13:08:52;102935.81;;;9.54;40.44
48606;BME280;8482;54.396;18.590;2023-02-28T13:11:50;102946.34;;;9.77;40.09
48606;BME280;8482;54.396;18.590;2023-02-28T13:19:39;102930.72;;;10.35;39.22
48606;BME280;8482;54.396;18.590;2023-02-28T13:22:40;102926.16;;;10.59;38.46
48606;BME280;8482;54.396;18.590;2023-02-28T13:27:53;102926.16;;;10.99;37.68
48606;BME280;8482;54.396;18.590;2023-02-28T13:33:35;102920.59;;;11.61;36.12
48606;BME280;8482;54.396;18.590;2023-02-28T13:38:54;102903.72;;;12.34;35.06
48606;BME280;8482;54.396;18.590;2023-02-28T13:44:13;102902.69;;;13.52;32.86
48606;BME280;8482;54.396;18.590;2023-02-28T13:49:26;102901.38;;;15.36;30.19
48606;BME280;8482;54.396;18.590;2023-02-28T14:06:28;102877.75;;;19.00;26.28
48606;BME280;8482;54.396;18.590;2023-02-28T14:09:24;102882.66;;;19.39;25.28
48606;BME280;8482;54.396;18.590;2023-02-28T14:11:52;102875.44;;;19.72;24.86
48606;BME280;8482;54.396;18.590;2023-02-28T14:17:16;102868.47;;;20.33;24.54
48606;BME280;8482;54.396;18.590;2023-02-28T14:19:47;102872.16;;;21.04;23.73
48606;BME280;8482;54.396;18.590;2023-02-28T14:23:06;102862.84;;;21.77;22.33
48606;BME280;8482;54.396;18.590;2023-02-28T14:31:25;102863.88;;;22.23;22.01
48606;BME280;8482;54.396;18.590;2023-02-28T14:36:52;102876.50;;;22.70;21.17
48606;BME280;8482;54.396;18.590;2023-02-28T14:39:24;102870.88;;;22.54;21.52
48606;BME280;8482;54.396;18.590;2023-02-28T14:41:51;102869.50;;;22.49;21.51
48606;BME280;8482;54.396;18.590;2023-02-28T14:44:26;102865.50;;;22.44;21.47
48606;BME280;8482;54.396;18.590;2023-02-28T14:46:59;102866.88;;;22.10;21.97
48606;BME280;8482;54.396;18.590;2023-02-28T14:49:41;102865.59;;;22.14;21.91
48606;BME280;8482;54.396;18.590;2023-02-28T14:52:20;102862.69;;;22.35;21.53
48606;BME280;8482;54.396;18.590;2023-02-28T14:55:13;102871.50;;;22.38;21.42
48606;BME280;8482;54.396;18.590;2023-02-28T14:57:52;102877.19;;;22.34;21.69
48606;BME280;8482;54.396;18.590;2023-02-28T15:00:34;102867.31;;;22.05;21.75
48606;BME280;8482;54.396;18.590;2023-02-28T15:03:43;102864.53;;;21.78;22.07
48606;BME280;8482;54.396;18.590;2023-02-28T15:06:16;102860.59;;;21.62;22.61
48606;BME280;8482;54.396;18.590;2023-02-28T15:08:44;102855.66;;;21.07;22.97
48606;BME280;8482;54.396;18.590;2023-02-28T15:11:17;102843.94;;;19.84;24.18
48606;BME280;8482;54.396;18.590;2023-02-28T15:13:53;102841.72;;;18.34;26.05
48606;BME280;8482;54.396;18.590;2023-02-28T15:16:25;102850.78;;;16.89;27.72
48606;BME280;8482;54.396;18.590;2023-02-28T15:21:32;102840.69;;;14.52;30.95
48606;BME280;8482;54.396;18.590;2023-02-28T15:26:37;102853.47;;;12.77;33.97
48606;BME280;8482;54.396;18.590;2023-02-28T15:29:21;102854.81;;;12.01;35.54
48606;BME280;8482;54.396;18.590;2023-02-28T15:32:03;102848.09;;;11.40;36.71
48606;BME280;8482;54.396;18.590;2023-02-28T15:34:41;102858.69;;;10.84;37.88
48606;BME280;8482;54.396;18.590;2023-02-28T15:40:16;102852.34;;;9.86;40.45
48606;BME280;8482;54.396;18.590;2023-02-28T15:43:27;102852.63;;;9.35;41.43
48606;BME280;8482;54.396;18.590;2023-02-28T15:46:04;102846.81;;;9.03;42.29
48606;BME280;8482;54.396;18.590;2023-02-28T15:48:43;102846.19;;;8.73;43.15
48606;BME280;8482;54.396;18.590;2023-02-28T15:51:33;102842.81;;;8.44;44.05
48606;BME280;8482;54.396;18.590;2023-02-28T15:54:22;102841.06;;;8.19;44.62
48606;BME280;8482;54.396;18.590;2023-02-28T15:56:56;102841.75;;;7.99;45.04
48606;BME280;8482;54.396;18.590;2023-02-28T15:59:28;102842.44;;;7.79;45.56
48606;BME280;8482;54.396;18.590;2023-02-28T16:02:16;102843.91;;;7.61;46.04